Time;durP1;ratioP1;P1;durP2;ratioP2;P2;SDS_P1;SDS_P2;PMS_P1;PMS_P2;Temp;Humidity;BMP_temperature;BMP_pressure;BME280_temperature;BME280_humidity;BME280_pressure;Samples;Min_cycle;Max_cycle;Signal;HPM_P1;HPM_P2
2021/06/05 00:02:08;;;;;;;16.40;10.40;;;;;;;19.57;51.12;101003.46;124769;1093;103028;-79
2021/06/05 00:04:35;;;;;;;15.20;11.17;;;;;;;19.52;52.13;101001.88;124573;1093;114971;-80
2021/06/05 00:07:03;;;;;;;19.50;13.50;;;;;;;19.49;53.13;101001.20;124737;1093;103277;-80
2021/06/05 00:09:44;;;;;;;18.05;11.90;;;;;;;19.44;54.20;101001.44;125905;1091;102965;-84
2021/06/05 00:12:15;;;;;;;16.93;13.28;;;;;;;19.37;57.66;100994.63;124875;1093;113877;-80
2021/06/05 00:14:42;;;;;;;17.50;12.20;;;;;;;19.19;59.67;100989.26;127795;1091;101156;-81
2021/06/05 00:17:10;;;;;;;18.38;12.53;;;;;;;18.99;60.02;100981.32;127827;1093;115450;-80
2021/06/05 00:19:39;;;;;;;16.60;12.00;;;;;;;18.82;60.64;100980.34;126244;1092;102990;-79
2021/06/05 00:22:07;;;;;;;18.20;12.77;;;;;;;18.70;59.96;100975.59;125023;1093;102994;-81
2021/06/05 00:24:35;;;;;;;17.33;13.35;;;;;;;18.75;60.52;100975.34;124712;1093;116733;-80
2021/06/05 00:27:16;;;;;;;18.55;12.30;;;;;;;18.89;61.00;100986.34;124543;1096;103177;-80
2021/06/05 00:29:43;;;;;;;15.30;11.90;;;;;;;18.97;60.69;100992.20;124469;1095;115019;-79
2021/06/05 00:32:10;;;;;;;17.80;12.33;;;;;;;19.04;60.32;100993.62;124354;1093;104305;-82
2021/06/05 00:34:51;;;;;;;15.08;12.55;;;;;;;19.14;60.37;100999.42;124699;1092;116090;-81
2021/06/05 00:37:33;;;;;;;14.40;12.43;;;;;;;19.14;60.94;100995.83;127623;1093;101640;-77
2021/06/05 00:40:01;;;;;;;14.03;10.88;;;;;;;19.05;62.44;100999.91;127666;1092;100673;-78
2021/06/05 00:42:28;;;;;;;18.58;12.13;;;;;;;18.97;61.61;100996.73;125765;1092;114583;-80
2021/06/05 00:45:11;;;;;;;14.28;11.60;;;;;;;18.98;61.27;100988.55;124841;1093;103164;-80
2021/06/05 00:47:39;;;;;;;15.58;12.00;;;;;;;18.99;61.71;100986.72;127527;1093;116085;-80
2021/06/05 00:50:10;;;;;;;18.13;11.80;;;;;;;18.94;62.46;100986.97;127673;1093;100951;-80
2021/06/05 00:52:51;;;;;;;14.17;12.30;;;;;;;18.81;62.15;100986.69;127506;1096;116191;-79
2021/06/05 00:55:21;;;;;;;13.33;11.93;;;;;;;18.66;62.80;100977.56;127538;1096;101322;-80
2021/06/05 00:57:49;;;;;;;18.70;12.85;;;;;;;18.63;63.98;100983.09;127598;1096;101700;-80
2021/06/05 01:00:42;;;;;;;24.53;12.78;;;;;;;18.70;63.47;100984.55;127090;1099;114644;-81
2021/06/05 01:03:11;;;;;;;12.80;11.40;;;;;;;18.81;64.78;100986.69;127248;1098;100815;-81
2021/06/05 01:05:57;;;;;;;15.27;12.17;;;;;;;18.75;64.07;100991.53;124415;1098;115977;-80
2021/06/05 01:08:45;;;;;;;14.77;11.77;;;;;;;18.69;65.53;100974.70;123547;1100;103211;-81
2021/06/05 01:11:28;;;;;;;14.83;11.55;;;;;;;18.51;66.34;100970.23;126743;1100;116404;-83
2021/06/05 01:14:19;;;;;;;17.00;10.93;;;;;;;18.42;67.02;100965.30;127201;1100;101078;-81
2021/06/05 01:16:49;;;;;;;11.95;10.53;;;;;;;18.31;67.09;100955.95;127117;1100;116261;-78
2021/06/05 01:19:46;;;;;;;14.10;12.40;;;;;;;18.19;67.25;100952.04;127171;1098;101791;-80
2021/06/05 01:22:27;;;;;;;12.27;10.97;;;;;;;18.01;67.53;100932.23;127193;1100;101048;-79
2021/06/05 01:25:05;;;;;;;12.65;10.25;;;;;;;17.89;68.08;100922.89;127084;1099;116653;-81
2021/06/05 01:27:37;;;;;;;13.38;9.75;;;;;;;17.83;67.55;100922.31;127216;1099;100799;-81
2021/06/05 01:30:29;;;;;;;12.75;9.18;;;;;;;17.91;66.96;100916.56;125289;1100;115488;-84
2021/06/05 01:32:58;;;;;;;13.80;9.25;;;;;;;17.94;66.39;100914.63;124312;1100;103182;-81
2021/06/05 01:35:27;;;;;;;12.15;9.50;;;;;;;18.00;65.20;100916.14;123722;1099;115908;-80
2021/06/05 01:37:55;;;;;;;9.90;8.90;;;;;;;18.07;66.14;100917.58;123947;1096;103189;-80
2021/06/05 01:40:26;;;;;;;12.40;9.23;;;;;;;17.99;66.64;100911.70;124452;1095;103991;-83
2021/06/05 01:42:56;;;;;;;12.20;9.78;;;;;;;17.88;66.55;100902.27;127524;1093;115033;-81
2021/06/05 01:45:31;;;;;;;9.45;8.55;;;;;;;17.79;66.30;100897.33;127698;1093;100849;-81
2021/06/05 01:47:59;;;;;;;9.93;8.13;;;;;;;17.70;66.33;100895.98;127569;1093;115412;-81
2021/06/05 01:50:43;;;;;;;9.55;8.53;;;;;;;17.72;66.63;100896.76;125088;1093;102983;-79
2021/06/05 01:53:26;;;;;;;12.87;8.40;;;;;;;17.73;66.04;100892.27;125153;1093;114954;-80
2021/06/05 01:55:59;;;;;;;11.03;8.33;;;;;;;17.74;66.57;100890.43;124183;1093;103009;-80
2021/06/05 01:58:29;;;;;;;9.00;8.08;;;;;;;17.75;65.75;100897.58;124279;1093;103029;-80
2021/06/05 02:00:58;;;;;;;14.43;8.70;;;;;;;17.83;66.25;100895.38;127391;1093;115471;-81
2021/06/05 02:03:26;;;;;;;9.80;7.53;;;;;;;17.94;65.36;100895.77;126292;1093;103163;-82
2021/06/05 02:05:54;;;;;;;8.90;7.70;;;;;;;18.05;65.09;100896.09;124154;1093;115323;-79
2021/06/05 02:08:24;;;;;;;12.13;8.73;;;;;;;18.15;64.26;100906.42;124272;1093;102981;-79
2021/06/05 02:10:55;;;;;;;9.87;8.83;;;;;;;18.12;64.49;100907.44;124463;1093;115927;-83
2021/06/05 02:13:26;;;;;;;11.13;8.88;;;;;;;18.18;63.88;100904.45;124796;1093;102946;-81
2021/06/05 02:15:57;;;;;;;12.78;8.20;;;;;;;18.23;64.14;100911.44;124888;1093;103396;-83
2021/06/05 02:18:29;;;;;;;9.88;7.65;;;;;;;18.25;64.08;100910.41;124746;1093;114782;-79
2021/06/05 02:21:01;;;;;;;12.33;8.70;;;;;;;18.24;64.12;100910.48;124840;1093;104040;-81
2021/06/05 02:23:47;;;;;;;9.20;7.90;;;;;;;18.19;65.09;100908.91;127593;1093;114672;-83
2021/06/05 02:26:29;;;;;;;10.07;8.13;;;;;;;18.12;65.78;100915.53;127345;1096;101877;-83
2021/06/05 02:29:12;;;;;;;13.25;9.00;;;;;;;18.11;66.51;100908.39;127349;1096;114629;-79
2021/06/05 02:31:40;;;;;;;11.78;8.98;;;;;;;18.11;65.80;100916.47;127276;1096;101742;-80
2021/06/05 02:34:10;;;;;;;10.25;8.45;;;;;;;18.12;66.28;100906.58;127535;1095;100872;-80
2021/06/05 02:36:41;;;;;;;9.58;8.70;;;;;;;18.11;67.53;100912.92;127476;1096;114119;-80
2021/06/05 02:39:10;;;;;;;9.95;7.98;;;;;;;18.06;66.80;100902.38;126881;1095;102882;-80
2021/06/05 02:41:41;;;;;;;10.07;7.63;;;;;;;17.95;67.91;100899.33;124781;1096;115767;-81
2021/06/05 02:44:09;;;;;;;11.53;8.98;;;;;;;17.77;68.15;100895.69;124743;1096;103172;-80
2021/06/05 02:46:39;;;;;;;8.40;7.48;;;;;;;17.66;68.56;100891.69;124641;1095;116589;-81
2021/06/05 02:49:23;;;;;;;8.07;7.27;;;;;;;17.75;68.02;100889.48;124681;1096;103668;-82
2021/06/05 02:52:39;;;;;;;11.03;8.63;;;;;;;17.87;67.74;100895.16;127190;1098;101617;-80
2021/06/05 02:55:13;;;;;;;9.67;7.67;;;;;;;17.94;67.62;100892.18;126975;1099;116156;-80
2021/06/05 02:57:42;;;;;;;13.53;8.47;;;;;;;17.93;68.30;100887.77;124366;1100;103061;-80
2021/06/05 03:00:46;;;;;;;11.53;8.93;;;;;;;17.75;69.30;100878.72;124055;1100;114529;-81
2021/06/05 03:03:28;;;;;;;8.73;7.35;;;;;;;17.55;70.51;100862.58;123799;1097;103504;-80
2021/06/05 03:05:55;;;;;;;10.70;7.40;;;;;;;17.39;70.69;100856.16;123957;1096;115154;-80
2021/06/05 03:08:33;;;;;;;10.98;8.23;;;;;;;17.32;70.62;100849.34;124209;1095;103538;-78
2021/06/05 03:11:07;;;;;;;8.40;7.60;;;;;;;17.30;69.49;100849.41;124619;1096;115758;-81
2021/06/05 03:13:35;;;;;;;10.17;8.57;;;;;;;17.31;69.63;100850.27;124734;1096;103188;-81
2021/06/05 03:16:03;;;;;;;10.65;8.40;;;;;;;17.46;69.09;100860.33;124780;1095;103082;-83
2021/06/05 03:18:32;;;;;;;9.47;7.57;;;;;;;17.61;68.67;100849.77;124722;1096;116063;-81
2021/06/05 03:21:17;;;;;;;10.97;7.93;;;;;;;17.77;68.81;100849.89;124758;1096;103948;-81
2021/06/05 03:23:46;;;;;;;11.73;8.03;;;;;;;17.75;68.55;100858.02;124739;1095;115868;-83
2021/06/05 03:26:15;;;;;;;16.25;7.48;;;;;;;17.69;68.28;100858.34;125008;1097;103062;-83
2021/06/05 03:28:43;;;;;;;8.90;8.10;;;;;;;17.64;68.23;100860.38;124655;1096;103216;-83
2021/06/05 03:31:12;;;;;;;10.40;8.40;;;;;;;17.58;68.64;100866.95;124765;1093;115550;-82
2021/06/05 03:33:40;;;;;;;9.15;7.63;;;;;;;17.59;69.03;100859.73;124950;1093;103089;-82
2021/06/05 03:36:08;;;;;;;11.17;8.37;;;;;;;17.57;69.18;100861.61;124891;1093;115802;-81
2021/06/05 03:38:36;;;;;;;11.23;8.73;;;;;;;17.51;69.17;100860.98;125242;1093;102940;-81
2021/06/05 03:41:04;;;;;;;9.50;8.68;;;;;;;17.48;69.63;100862.94;124998;1091;116626;-81
2021/06/05 03:43:31;;;;;;;11.55;8.40;;;;;;;17.49;69.77;100868.25;125173;1093;103007;-81
2021/06/05 03:45:59;;;;;;;9.28;8.25;;;;;;;17.50;69.74;100871.80;125132;1093;102990;-79
2021/06/05 03:48:27;;;;;;;11.03;8.88;;;;;;;17.57;70.12;100875.08;125132;1092;115822;-81
2021/06/05 03:50:56;;;;;;;10.40;7.68;;;;;;;17.62;70.50;100873.93;124903;1092;103476;-82
2021/06/05 03:53:25;;;;;;;9.98;8.93;;;;;;;17.69;70.32;100882.59;124286;1093;114415;-81
2021/06/05 03:55:53;;;;;;;9.85;7.70;;;;;;;17.70;70.09;100879.81;127685;1093;101310;-82
2021/06/05 03:58:39;;;;;;;8.38;7.43;;;;;;;17.71;70.20;100891.45;127962;1092;100743;-79
2021/06/05 04:01:18;;;;;;;9.18;8.28;;;;;;;17.69;70.47;100878.06;127540;1093;115346;-79
2021/06/05 04:03:46;;;;;;;9.48;8.50;;;;;;;17.70;70.55;100884.31;127945;1092;101628;-79
2021/06/05 04:06:28;;;;;;;8.13;7.10;;;;;;;17.65;69.97;100878.30;127817;1093;114516;-79
2021/06/05 04:08:56;;;;;;;10.57;8.47;;;;;;;17.68;69.61;100881.69;127881;1093;101143;-79
2021/06/05 04:11:25;;;;;;;9.07;8.17;;;;;;;17.82;69.40;100880.14;126185;1092;116040;-80
2021/06/05 04:13:52;;;;;;;9.70;7.93;;;;;;;17.84;68.36;100887.20;125163;1093;103004;-82
2021/06/05 04:16:19;;;;;;;9.27;8.33;;;;;;;17.72;68.60;100871.65;125129;1093;103483;-82
2021/06/05 04:18:47;;;;;;;12.35;9.43;;;;;;;17.68;69.24;100879.00;125044;1093;114487;-82
2021/06/05 04:21:19;;;;;;;10.30;9.08;;;;;;;17.61;70.09;100871.31;125048;1093;104019;-82
2021/06/05 04:23:48;;;;;;;9.93;8.80;;;;;;;17.53;70.88;100867.16;124943;1093;115539;-81
2021/06/05 04:26:16;;;;;;;9.08;8.10;;;;;;;17.50;70.54;100858.34;124878;1093;103149;-81
2021/06/05 04:28:44;;;;;;;8.97;8.10;;;;;;;17.44;70.63;100864.90;125048;1093;103074;-81
2021/06/05 04:31:12;;;;;;;19.83;9.87;;;;;;;17.38;70.91;100873.28;124812;1093;114026;-82
2021/06/05 04:33:40;;;;;;;11.10;8.45;;;;;;;17.41;70.67;100867.75;124510;1093;103156;-81
2021/06/05 04:36:10;;;;;;;9.13;8.20;;;;;;;17.49;71.01;100870.08;124533;1093;115528;-82
2021/06/05 04:38:40;;;;;;;10.07;9.07;;;;;;;17.57;70.08;100872.38;127975;1093;101000;-83
2021/06/05 04:41:08;;;;;;;13.97;9.23;;;;;;;17.65;69.93;100881.85;127589;1093;115736;-84
2021/06/05 04:43:36;;;;;;;15.98;9.33;;;;;;;17.70;69.32;100879.81;127950;1093;102015;-83
2021/06/05 04:46:03;;;;;;;12.75;9.05;;;;;;;17.80;69.37;100879.37;126136;1092;102980;-81
2021/06/05 04:48:31;;;;;;;13.07;8.33;;;;;;;17.86;69.29;100877.24;125105;1092;114672;-81
2021/06/05 04:50:59;;;;;;;10.97;9.70;;;;;;;17.76;69.26;100883.16;124885;1093;102935;-81
2021/06/05 04:53:26;;;;;;;9.90;8.90;;;;;;;17.76;69.31;100877.77;124740;1092;116328;-81
2021/06/05 04:55:54;;;;;;;11.13;9.27;;;;;;;17.79;69.36;100883.86;125193;1093;103006;-83
2021/06/05 04:58:22;;;;;;;12.37;8.57;;;;;;;17.93;69.43;100882.38;124904;1093;102998;-80
2021/06/05 05:00:52;;;;;;;12.48;9.10;;;;;;;18.02;68.94;100881.89;124329;1093;115951;-81
2021/06/05 05:03:22;;;;;;;10.40;8.65;;;;;;;18.10;68.79;100877.02;124451;1093;102999;-81
2021/06/05 05:05:52;;;;;;;10.90;9.03;;;;;;;18.14;68.96;100877.71;124777;1093;116224;-82
2021/06/05 05:08:20;;;;;;;10.53;8.63;;;;;;;18.18;68.27;100880.19;125172;1092;103078;-82
2021/06/05 05:10:50;;;;;;;10.03;8.73;;;;;;;18.24;67.95;100875.44;127971;1093;100831;-81
2021/06/05 05:13:21;;;;;;;13.60;9.95;;;;;;;18.36;67.85;100874.80;126515;1092;114982;-81
2021/06/05 05:15:49;;;;;;;9.87;8.83;;;;;;;18.49;67.44;100873.22;124933;1093;103569;-81
2021/06/05 05:18:16;;;;;;;11.33;8.88;;;;;;;18.57;67.04;100883.62;124834;1093;115696;-81
2021/06/05 05:20:44;;;;;;;8.63;7.78;;;;;;;18.58;66.71;100893.46;124973;1092;102991;-81
2021/06/05 05:23:13;;;;;;;9.37;8.43;;;;;;;18.41;66.35;100878.14;124856;1091;114816;-81
2021/06/05 05:25:43;;;;;;;12.03;8.97;;;;;;;18.46;66.76;100881.48;124919;1092;103006;-81
2021/06/05 05:28:12;;;;;;;9.90;8.03;;;;;;;18.48;67.53;100886.79;126687;1093;103480;-80
2021/06/05 05:30:51;;;;;;;10.20;9.20;;;;;;;18.61;66.62;100890.59;124734;1093;114368;-81
2021/06/05 05:33:21;;;;;;;9.77;8.53;;;;;;;18.74;66.40;100888.14;124928;1093;103019;-81
2021/06/05 05:35:49;;;;;;;9.03;8.13;;;;;;;18.79;66.60;100888.73;127843;1093;115670;-82
2021/06/05 05:38:18;;;;;;;9.23;8.20;;;;;;;18.80;66.05;100895.02;125781;1092;103002;-82
2021/06/05 05:40:47;;;;;;;11.15;8.35;;;;;;;18.79;65.53;100890.58;125330;1093;103671;-82
2021/06/05 05:43:15;;;;;;;9.00;8.10;;;;;;;18.93;65.06;100901.55;124840;1093;115766;-83
2021/06/05 05:45:42;;;;;;;9.30;7.85;;;;;;;18.97;64.46;100908.52;124467;1092;103009;-83
2021/06/05 05:48:12;;;;;;;11.50;9.30;;;;;;;18.99;64.09;100903.93;124874;1093;114230;-83
2021/06/05 05:50:42;;;;;;;10.55;8.40;;;;;;;18.99;64.53;100903.03;124699;1092;103255;-82
2021/06/05 05:53:23;;;;;;;13.20;9.80;;;;;;;19.05;65.12;100902.72;127636;1092;115570;-83
2021/06/05 05:56:05;;;;;;;12.88;9.85;;;;;;;19.08;66.21;100907.08;124272;1096;103024;-83
2021/06/05 05:58:36;;;;;;;12.30;10.47;;;;;;;19.07;66.28;100908.03;124118;1096;103084;-84
2021/06/05 06:01:06;;;;;;;11.80;10.70;;;;;;;19.11;66.46;100907.77;124681;1093;115853;-83
2021/06/05 06:03:34;;;;;;;13.50;11.27;;;;;;;19.15;66.60;100909.38;125939;1093;103489;-82
2021/06/05 06:06:01;;;;;;;11.10;9.93;;;;;;;19.18;66.09;100911.90;124323;1093;116296;-81
2021/06/05 06:08:43;;;;;;;11.95;10.05;;;;;;;19.27;66.35;100912.34;124442;1093;103467;-80
2021/06/05 06:11:17;;;;;;;11.35;10.15;;;;;;;19.32;65.92;100911.13;127667;1093;115937;-81
2021/06/05 06:13:45;;;;;;;11.10;9.97;;;;;;;19.35;66.25;100912.80;127705;1093;103751;-83
2021/06/05 06:16:15;;;;;;;10.88;9.88;;;;;;;19.42;66.11;100907.92;127041;1093;102895;-79
2021/06/05 06:18:44;;;;;;;12.25;9.30;;;;;;;19.55;65.39;100909.88;126158;1092;114378;-80
2021/06/05 06:21:15;;;;;;;13.20;11.80;;;;;;;19.67;65.44;100905.62;124503;1093;103080;-81
2021/06/05 06:23:43;;;;;;;12.97;10.90;;;;;;;19.78;64.79;100914.92;124733;1093;116469;-80
2021/06/05 06:26:15;;;;;;;13.93;11.10;;;;;;;19.79;64.74;100919.38;124828;1093;102985;-80
2021/06/05 06:28:43;;;;;;;13.35;10.78;;;;;;;19.82;65.09;100916.52;124981;1093;103076;-82
2021/06/05 06:31:12;;;;;;;11.63;10.53;;;;;;;19.91;64.54;100912.44;124991;1093;116554;-80
2021/06/05 06:33:40;;;;;;;10.10;8.78;;;;;;;19.81;63.41;100912.10;125124;1093;103012;-83
2021/06/05 06:36:08;;;;;;;12.20;9.90;;;;;;;19.80;63.08;100910.31;125024;1093;116241;-83
2021/06/05 06:38:42;;;;;;;9.98;9.00;;;;;;;19.71;62.04;100907.19;125121;1092;103028;-82
2021/06/05 06:41:12;;;;;;;11.40;9.70;;;;;;;19.58;63.34;100913.34;124842;1092;114472;-85
2021/06/05 06:43:41;;;;;;;10.73;9.50;;;;;;;19.51;63.94;100908.31;124996;1092;103276;-82
2021/06/05 06:46:23;;;;;;;10.60;8.77;;;;;;;19.63;64.18;100912.16;125048;1093;103003;-83
2021/06/05 06:49:06;;;;;;;10.17;8.87;;;;;;;19.73;62.49;100909.80;124815;1091;115005;-82
2021/06/05 06:51:35;;;;;;;9.13;8.20;;;;;;;19.80;62.18;100907.62;124914;1093;103146;-85
2021/06/05 06:54:07;;;;;;;11.03;9.90;;;;;;;19.79;62.90;100914.86;126017;1093;115440;-82
2021/06/05 06:56:35;;;;;;;10.97;8.67;;;;;;;19.79;63.40;100912.16;124392;1092;103077;-80
2021/06/05 06:59:04;;;;;;;11.07;8.50;;;;;;;19.88;62.68;100908.94;124456;1093;116174;-80
2021/06/05 07:01:32;;;;;;;8.90;8.10;;;;;;;19.83;62.58;100915.58;124450;1093;103070;-80
2021/06/05 07:04:13;;;;;;;9.90;8.88;;;;;;;19.83;62.40;100908.36;127575;1095;101546;-81
2021/06/05 07:06:41;;;;;;;10.08;8.98;;;;;;;19.94;61.90;100912.25;124980;1096;114631;-79
2021/06/05 07:09:10;;;;;;;10.13;8.70;;;;;;;20.02;61.58;100913.56;124864;1093;103336;-82
2021/06/05 07:11:37;;;;;;;9.88;8.43;;;;;;;19.93;62.40;100911.39;124793;1093;114941;-80
2021/06/05 07:14:07;;;;;;;9.77;7.57;;;;;;;19.96;62.32;100899.53;125027;1093;102955;-81
2021/06/05 07:16:37;;;;;;;9.20;8.28;;;;;;;20.17;61.91;100906.39;124791;1093;102998;-82
2021/06/05 07:19:06;;;;;;;9.93;8.95;;;;;;;20.13;60.82;100898.56;127126;1092;116146;-83
2021/06/05 07:21:35;;;;;;;9.60;8.53;;;;;;;20.16;61.09;100896.52;124790;1093;103164;-81
2021/06/05 07:24:03;;;;;;;9.75;8.75;;;;;;;20.24;60.80;100900.63;124902;1092;116178;-83
2021/06/05 07:26:32;;;;;;;9.93;8.53;;;;;;;20.29;60.42;100898.53;125058;1092;103002;-81
2021/06/05 07:29:02;;;;;;;9.90;8.90;;;;;;;20.27;60.12;100900.44;124981;1093;115956;-79
2021/06/05 07:31:42;;;;;;;10.88;8.38;;;;;;;20.29;60.54;100893.12;124965;1093;104137;-83
2021/06/05 07:34:10;;;;;;;8.78;7.63;;;;;;;20.17;60.54;100892.86;124452;1092;103190;-81
2021/06/05 07:36:48;;;;;;;10.93;7.57;;;;;;;20.11;61.07;100890.51;124564;1093;115781;-80
2021/06/05 07:39:37;;;;;;;14.20;9.00;;;;;;;20.19;60.02;100892.77;124496;1096;103049;-81
2021/06/05 07:42:06;;;;;;;9.47;7.90;;;;;;;20.19;60.63;100896.36;124609;1095;115698;-80
2021/06/05 07:44:35;;;;;;;10.57;8.43;;;;;;;20.02;60.02;100891.08;124675;1091;103002;-81
2021/06/05 07:47:03;;;;;;;7.80;6.73;;;;;;;19.91;59.88;100901.63;124315;1093;114370;-81
2021/06/05 07:49:35;;;;;;;8.27;7.10;;;;;;;19.88;59.94;100898.13;124810;1092;103562;-79
2021/06/05 07:52:07;;;;;;;7.25;5.85;;;;;;;19.86;60.62;100900.06;124929;1093;103010;-83
2021/06/05 07:54:48;;;;;;;11.53;8.93;;;;;;;19.80;60.01;100905.77;124948;1095;115323;-85
2021/06/05 07:57:16;;;;;;;23.47;18.60;;;;;;;19.82;60.26;100897.60;124768;1096;103133;-83
2021/06/05 07:59:58;;;;;;;5.45;4.50;;;;;;;19.78;59.44;100902.30;127550;1093;114713;-79
2021/06/05 08:02:25;;;;;;;5.60;5.10;;;;;;;19.73;59.42;100904.39;127790;1093;101431;-82
2021/06/05 08:04:53;;;;;;;5.60;5.10;;;;;;;19.71;59.58;100900.89;124937;1093;102999;-81
2021/06/05 08:07:20;;;;;;;6.10;5.20;;;;;;;19.63;59.41;100905.86;124945;1092;113961;-80
2021/06/05 08:09:49;;;;;;;5.93;4.90;;;;;;;19.64;60.45;100899.50;124962;1093;103166;-79
2021/06/05 08:12:16;;;;;;;5.65;4.85;;;;;;;19.68;59.22;100899.23;124847;1092;115587;-82
2021/06/05 08:14:44;;;;;;;5.75;4.80;;;;;;;19.82;59.49;100909.31;124768;1093;103169;-80
2021/06/05 08:17:11;;;;;;;6.33;5.77;;;;;;;19.98;57.77;100908.41;124857;1092;115082;-79
2021/06/05 08:19:40;;;;;;;8.03;5.13;;;;;;;19.99;57.02;100899.34;124835;1093;104187;-80
2021/06/05 08:22:09;;;;;;;5.65;5.13;;;;;;;19.97;57.12;100899.44;124964;1093;102957;-80
2021/06/05 08:24:37;;;;;;;6.20;5.60;;;;;;;19.88;57.28;100891.86;126033;1093;115933;-80
2021/06/05 08:27:05;;;;;;;7.75;6.08;;;;;;;19.91;58.42;100893.52;124938;1092;103025;-81
2021/06/05 08:29:33;;;;;;;6.85;5.95;;;;;;;19.94;57.22;100879.81;124839;1092;114599;-81
2021/06/05 08:32:00;;;;;;;5.70;4.78;;;;;;;20.01;57.75;100892.03;124965;1092;103540;-83
2021/06/05 08:34:29;;;;;;;10.47;6.87;;;;;;;20.13;57.78;100879.63;125119;1093;103030;-83
2021/06/05 08:36:57;;;;;;;8.30;5.70;;;;;;;20.23;59.26;100885.36;125157;1093;114624;-83
2021/06/05 08:39:24;;;;;;;12.33;8.63;;;;;;;20.25;59.94;100878.03;125195;1093;103799;-85
2021/06/05 08:41:57;;;;;;;13.67;9.07;;;;;;;20.25;60.21;100878.89;124927;1092;116032;-85
2021/06/05 08:44:44;;;;;;;17.00;10.13;;;;;;;20.30;59.54;100884.91;125434;1093;103447;-86
2021/06/05 08:47:16;;;;;;;9.55;8.55;;;;;;;20.50;59.93;100878.30;125263;1093;114804;-84
2021/06/05 08:49:46;;;;;;;13.90;9.03;;;;;;;20.65;59.22;100871.08;124693;1093;102990;-87
2021/06/05 08:52:50;;;;;;;12.03;9.08;;;;;;;20.73;58.45;100875.16;125390;1093;102994;-84
2021/06/05 08:55:59;;;;;;;10.23;9.30;;;;;;;20.82;58.11;100871.89;125390;1096;114549;-89
2021/06/05 08:58:31;;;;;;;14.97;11.73;;;;;;;20.90;58.61;100871.42;125428;1096;103678;-85
2021/06/05 09:01:16;;;;;;;13.10;9.50;;;;;;;21.06;57.59;100880.35;124942;1096;114719;-85
2021/06/05 09:03:46;;;;;;;10.30;9.38;;;;;;;21.24;57.31;100880.16;125068;1095;103204;-86
2021/06/05 09:06:22;;;;;;;9.43;8.28;;;;;;;21.21;57.95;100878.51;124495;1096;114505;-83
2021/06/05 09:08:50;;;;;;;10.33;8.70;;;;;;;21.19;57.37;100881.31;124891;1094;103836;-82
2021/06/05 09:11:32;;;;;;;11.65;9.60;;;;;;;21.32;56.48;100878.67;124981;1094;114582;-82
2021/06/05 09:14:00;;;;;;;12.43;9.70;;;;;;;21.41;56.68;100885.36;124855;1095;103184;-82
2021/06/05 09:16:47;;;;;;;11.30;8.53;;;;;;;21.46;56.99;100877.81;125350;1095;103322;-84
2021/06/05 09:19:21;;;;;;;11.85;10.20;;;;;;;21.52;57.35;100881.95;124671;1095;116137;-84
2021/06/05 09:21:53;;;;;;;12.13;9.73;;;;;;;21.60;56.00;100876.08;124687;1095;103167;-80
2021/06/05 09:24:31;;;;;;;9.83;8.83;;;;;;;21.49;56.10;100880.31;124923;1095;116186;-80
2021/06/05 09:27:16;;;;;;;11.70;9.37;;;;;;;21.26;55.93;100876.38;124535;1096;103090;-82
2021/06/05 09:30:04;;;;;;;9.90;8.90;;;;;;;21.10;57.08;100881.01;124574;1096;116352;-83
2021/06/05 09:32:50;;;;;;;9.47;8.57;;;;;;;21.25;57.69;100873.77;124775;1093;103197;-85
2021/06/05 09:35:22;;;;;;;10.27;8.87;;;;;;;21.30;56.21;100872.50;124786;1093;114447;-88
2021/06/05 09:38:12;;;;;;;12.33;9.45;;;;;;;21.50;56.05;100878.49;125163;1093;103105;-86
2021/06/05 09:41:07;;;;;;;9.63;8.63;;;;;;;21.49;54.79;100872.18;124660;1092;103082;-84
2021/06/05 09:43:35;;;;;;;11.23;8.90;;;;;;;21.44;56.18;100877.02;125249;1093;113302;-81
2021/06/05 09:46:20;;;;;;;10.88;9.30;;;;;;;21.49;55.46;100874.03;125414;1093;103030;-87
2021/06/05 09:48:50;;;;;;;9.05;8.25;;;;;;;21.54;55.76;100875.50;125321;1093;115748;-81
2021/06/05 09:51:41;;;;;;;10.88;9.33;;;;;;;21.67;55.54;100880.11;125151;1093;103601;-84
2021/06/05 09:54:16;;;;;;;8.87;7.93;;;;;;;21.73;54.27;100865.31;124856;1093;114652;-84
2021/06/05 09:56:48;;;;;;;9.75;8.75;;;;;;;21.79;54.51;100865.77;125136;1093;103001;-84
2021/06/05 09:59:26;;;;;;;9.95;8.88;;;;;;;21.97;53.65;100865.52;125218;1093;114362;-84
2021/06/05 10:02:05;;;;;;;10.70;7.40;;;;;;;22.01;54.46;100856.20;125703;1092;103035;-82
2021/06/05 10:05:07;;;;;;;9.97;7.33;;;;;;;22.13;53.33;100857.22;125584;1093;103009;-86
2021/06/05 10:07:35;;;;;;;9.98;7.98;;;;;;;22.19;53.70;100854.95;125542;1093;115878;-84
2021/06/05 10:10:29;;;;;;;8.00;7.13;;;;;;;22.40;51.58;100853.63;125523;1093;103400;-82
2021/06/05 10:12:58;;;;;;;7.73;6.73;;;;;;;22.57;51.76;100853.31;124940;1093;114446;-82
2021/06/05 10:15:34;;;;;;;8.40;7.60;;;;;;;22.80;50.88;100840.83;125600;1092;102995;-83
2021/06/05 10:18:14;;;;;;;8.50;6.63;;;;;;;23.20;49.24;100831.70;125241;1093;114620;-83
2021/06/05 10:21:10;;;;;;;8.28;6.80;;;;;;;23.37;51.05;100830.47;125430;1092;103520;-84
2021/06/05 10:23:40;;;;;;;6.75;6.05;;;;;;;23.84;47.97;100828.77;125358;1092;114583;-84
2021/06/05 10:26:24;;;;;;;5.97;5.47;;;;;;;24.02;47.42;100828.41;125366;1092;102960;-84
2021/06/05 10:28:56;;;;;;;6.80;6.20;;;;;;;24.45;47.47;100827.80;125138;1093;103025;-85
2021/06/05 10:31:25;;;;;;;6.23;5.18;;;;;;;25.49;44.57;100822.33;125600;1093;114388;-83
2021/06/05 10:33:55;;;;;;;5.40;4.90;;;;;;;25.85;43.28;100809.33;125943;1093;103098;-85
2021/06/05 10:36:54;;;;;;;6.70;4.30;;;;;;;26.86;41.78;100823.47;124994;1093;114778;-86
2021/06/05 10:39:31;;;;;;;5.65;4.25;;;;;;;28.01;37.55;100819.50;124446;1092;103183;-83
2021/06/05 10:42:04;;;;;;;4.93;4.43;;;;;;;28.57;36.61;100814.27;124839;1092;114962;-85
2021/06/05 10:44:46;;;;;;;4.55;4.10;;;;;;;29.37;35.86;100805.63;125062;1093;103021;-80
2021/06/05 10:47:29;;;;;;;6.03;4.40;;;;;;;30.13;35.63;100807.13;125275;1093;115381;-82
2021/06/05 10:50:14;;;;;;;4.63;4.13;;;;;;;30.58;31.11;100810.77;125290;1093;103138;-84
2021/06/05 10:53:00;;;;;;;5.27;3.70;;;;;;;30.72;31.00;100810.15;125054;1093;103107;-88
2021/06/05 10:55:47;;;;;;;3.75;3.33;;;;;;;31.24;31.74;100803.73;125214;1092;116176;-86
2021/06/05 10:58:36;;;;;;;3.20;2.90;;;;;;;31.67;29.90;100804.59;125265;1092;103115;-85
2021/06/05 11:01:07;;;;;;;4.27;2.93;;;;;;;31.09;30.01;100797.16;125380;1093;114532;-84
2021/06/05 11:03:37;;;;;;;5.95;3.65;;;;;;;30.43;31.35;100800.33;125305;1093;103026;-84
2021/06/05 11:06:25;;;;;;;4.93;3.20;;;;;;;29.94;31.46;100805.42;125277;1092;114787;-85
2021/06/05 11:08:57;;;;;;;3.68;2.80;;;;;;;29.22;31.68;100797.00;125361;1093;103077;-83
2021/06/05 11:11:45;;;;;;;3.73;2.70;;;;;;;28.63;32.89;100800.83;124979;1094;114937;-85
2021/06/05 11:14:16;;;;;;;3.13;2.57;;;;;;;27.94;33.48;100799.17;125141;1095;103207;-84
2021/06/05 11:17:00;;;;;;;19.57;15.23;;;;;;;27.41;34.26;100790.30;124611;1100;103188;-83
2021/06/05 11:19:43;;;;;;;5.37;2.60;;;;;;;27.13;34.67;100794.66;124698;1096;114633;-86
2021/06/05 11:22:16;;;;;;;5.40;3.30;;;;;;;26.75;35.48;100793.48;124238;1096;103489;-82
2021/06/05 11:25:12;;;;;;;2.73;2.53;;;;;;;26.40;34.43;100797.42;124361;1095;116250;-83
2021/06/05 11:27:39;;;;;;;3.20;2.77;;;;;;;25.93;35.57;100803.22;124760;1096;102993;-79
2021/06/05 11:30:25;;;;;;;6.17;5.57;;;;;;;25.68;36.94;100794.38;124358;1096;114393;-83
2021/06/05 11:32:54;;;;;;;4.20;2.50;;;;;;;25.65;35.57;100791.91;124511;1096;103032;-82
2021/06/05 11:35:48;;;;;;;3.63;3.33;;;;;;;25.70;36.41;100786.94;124813;1096;116556;-84